sensor_id;sensor_type;location;lat;lon;timestamp;pressure;altitude;pressure_sealevel;temperature;humidity
84358;BME280;74548;47.712;9.272;2024-01-16T00:02:05;95133.66;;;3.46;70.38
84358;BME280;74548;47.712;9.272;2024-01-16T00:04:30;95136.56;;;3.44;70.38
84358;BME280;74548;47.712;9.272;2024-01-16T00:06:56;95148.03;;;3.45;70.35
84358;BME280;74548;47.712;9.272;2024-01-16T00:09:21;95146.41;;;3.44;70.65
84358;BME280;74548;47.712;9.272;2024-01-16T00:11:47;95140.28;;;3.43;70.44
84358;BME280;74548;47.712;9.272;2024-01-16T00:14:12;95140.28;;;3.43;70.27
84358;BME280;74548;47.712;9.272;2024-01-16T00:16:45;95139.47;;;3.43;70.42
84358;BME280;74548;47.712;9.272;2024-01-16T00:19:11;95144.81;;;3.43;70.61
84358;BME280;74548;47.712;9.272;2024-01-16T00:21:43;95144.00;;;3.42;70.63
84358;BME280;74548;47.712;9.272;2024-01-16T00:24:11;95148.53;;;3.42;70.71
84358;BME280;74548;47.712;9.272;2024-01-16T00:26:37;95152.25;;;3.41;70.71
84358;BME280;74548;47.712;9.272;2024-01-16T00:29:02;95156.53;;;3.42;70.58
84358;BME280;74548;47.712;9.272;2024-01-16T00:31:27;95164.81;;;3.40;70.38
84358;BME280;74548;47.712;9.272;2024-01-16T00:33:53;95156.78;;;3.40;70.39
84358;BME280;74548;47.712;9.272;2024-01-16T00:36:18;95157.59;;;3.41;70.56
84358;BME280;74548;47.712;9.272;2024-01-16T00:38:44;95154.13;;;3.40;70.92
84358;BME280;74548;47.712;9.272;2024-01-16T00:41:10;95158.91;;;3.38;70.61
84358;BME280;74548;47.712;9.272;2024-01-16T00:43:35;95161.34;;;3.40;70.97
84358;BME280;74548;47.712;9.272;2024-01-16T00:46:01;95161.56;;;3.38;70.83
84358;BME280;74548;47.712;9.272;2024-01-16T00:48:26;95166.91;;;3.38;70.54
84358;BME280;74548;47.712;9.272;2024-01-16T00:50:52;95168.50;;;3.39;70.83
84358;BME280;74548;47.712;9.272;2024-01-16T00:53:17;95162.63;;;3.37;70.79
84358;BME280;74548;47.712;9.272;2024-01-16T00:55:42;95168.78;;;3.38;70.85
84358;BME280;74548;47.712;9.272;2024-01-16T00:58:08;95161.84;;;3.37;70.68
84358;BME280;74548;47.712;9.272;2024-01-16T01:00:33;95167.19;;;3.37;70.98
84358;BME280;74548;47.712;9.272;2024-01-16T01:03:00;95173.31;;;3.37;70.73
84358;BME280;74548;47.712;9.272;2024-01-16T01:05:28;95173.53;;;3.36;70.79
84358;BME280;74548;47.712;9.272;2024-01-16T01:07:57;95173.53;;;3.36;70.49
84358;BME280;74548;47.712;9.272;2024-01-16T01:10:23;95180.75;;;3.35;70.71
84358;BME280;74548;47.712;9.272;2024-01-16T01:12:49;95178.88;;;3.36;70.65
84358;BME280;74548;47.712;9.272;2024-01-16T01:15:14;95185.28;;;3.35;70.56
84358;BME280;74548;47.712;9.272;2024-01-16T01:17:40;95185.28;;;3.35;70.69
84358;BME280;74548;47.712;9.272;2024-01-16T01:20:08;95183.41;;;3.35;70.59
84358;BME280;74548;47.712;9.272;2024-01-16T01:22:33;95179.94;;;3.35;70.82
84358;BME280;74548;47.712;9.272;2024-01-16T01:24:58;95186.34;;;3.34;70.76
84358;BME280;74548;47.712;9.272;2024-01-16T01:27:24;95183.69;;;3.34;70.81
84358;BME280;74548;47.712;9.272;2024-01-16T01:29:49;95192.72;;;3.33;70.70
84358;BME280;74548;47.712;9.272;2024-01-16T01:32:14;95193.56;;;3.33;70.50
84358;BME280;74548;47.712;9.272;2024-01-16T01:34:42;95190.88;;;3.33;70.86
84358;BME280;74548;47.712;9.272;2024-01-16T01:37:08;95186.59;;;3.32;71.05
84358;BME280;74548;47.712;9.272;2024-01-16T01:39:33;95185.00;;;3.31;70.62
84358;BME280;74548;47.712;9.272;2024-01-16T01:41:59;95186.84;;;3.31;70.39
84358;BME280;74548;47.712;9.272;2024-01-16T01:44:24;95188.44;;;3.32;70.72
84358;BME280;74548;47.712;9.272;2024-01-16T01:46:51;95185.78;;;3.32;70.58
84358;BME280;74548;47.712;9.272;2024-01-16T01:49:19;95189.53;;;3.31;71.05
84358;BME280;74548;47.712;9.272;2024-01-16T01:51:45;95191.13;;;3.32;70.87
84358;BME280;74548;47.712;9.272;2024-01-16T01:54:11;95194.84;;;3.31;70.79
84358;BME280;74548;47.712;9.272;2024-01-16T01:56:38;95196.72;;;3.30;70.27
84358;BME280;74548;47.712;9.272;2024-01-16T01:59:05;95193.22;;;3.30;71.02
84358;BME280;74548;47.712;9.272;2024-01-16T02:01:33;95187.09;;;3.29;70.76
84358;BME280;74548;47.712;9.272;2024-01-16T02:04:00;95191.38;;;3.30;70.75
84358;BME280;74548;47.712;9.272;2024-01-16T02:06:27;95178.28;;;3.29;71.01
84358;BME280;74548;47.712;9.272;2024-01-16T02:08:52;95186.28;;;3.29;70.66
84358;BME280;74548;47.712;9.272;2024-01-16T02:11:18;95184.69;;;3.28;70.91
84358;BME280;74548;47.712;9.272;2024-01-16T02:13:43;95185.72;;;3.26;71.00
84358;BME280;74548;47.712;9.272;2024-01-16T02:16:22;95175.88;;;3.27;70.95
84358;BME280;74548;47.712;9.272;2024-01-16T02:18:49;95182.03;;;3.28;70.92
84358;BME280;74548;47.712;9.272;2024-01-16T02:21:20;95174.03;;;3.28;71.24
84358;BME280;74548;47.712;9.272;2024-01-16T02:23:46;95167.31;;;3.25;71.20
84358;BME280;74548;47.712;9.272;2024-01-16T02:26:15;95166.25;;;3.26;70.87
84358;BME280;74548;47.712;9.272;2024-01-16T02:28:41;95168.94;;;3.26;70.79
84358;BME280;74548;47.712;9.272;2024-01-16T02:31:07;95170.00;;;3.25;70.89
84358;BME280;74548;47.712;9.272;2024-01-16T02:33:33;95168.13;;;3.25;71.04
84358;BME280;74548;47.712;9.272;2024-01-16T02:35:58;95170.00;;;3.25;70.84
84358;BME280;74548;47.712;9.272;2024-01-16T02:38:24;95169.19;;;3.24;71.38
84358;BME280;74548;47.712;9.272;2024-01-16T02:40:50;95171.84;;;3.24;70.77
84358;BME280;74548;47.712;9.272;2024-01-16T02:43:15;95171.06;;;3.24;70.89
84358;BME280;74548;47.712;9.272;2024-01-16T02:45:41;95175.56;;;3.23;70.83
84358;BME280;74548;47.712;9.272;2024-01-16T02:48:06;95168.63;;;3.22;70.94
84358;BME280;74548;47.712;9.272;2024-01-16T02:50:32;95180.91;;;3.23;71.13
84358;BME280;74548;47.712;9.272;2024-01-16T02:52:57;95176.63;;;3.22;70.81
84358;BME280;74548;47.712;9.272;2024-01-16T02:55:23;95174.75;;;3.23;70.85
84358;BME280;74548;47.712;9.272;2024-01-16T02:57:48;95173.16;;;3.22;71.18
84358;BME280;74548;47.712;9.272;2024-01-16T03:00:14;95172.38;;;3.21;71.06
84358;BME280;74548;47.712;9.272;2024-01-16T03:02:39;95169.69;;;3.21;70.90
84358;BME280;74548;47.712;9.272;2024-01-16T03:05:05;95172.38;;;3.21;71.20
84358;BME280;74548;47.712;9.272;2024-01-16T03:07:30;95178.75;;;3.20;70.94
84358;BME280;74548;47.712;9.272;2024-01-16T03:09:56;95175.03;;;3.21;71.08
84358;BME280;74548;47.712;9.272;2024-01-16T03:12:21;95177.69;;;3.21;71.05
84358;BME280;74548;47.712;9.272;2024-01-16T03:14:47;95170.75;;;3.20;71.01
84358;BME280;74548;47.712;9.272;2024-01-16T03:17:12;95174.47;;;3.19;70.94
84358;BME280;74548;47.712;9.272;2024-01-16T03:19:38;95175.25;;;3.20;71.16
84358;BME280;74548;47.712;9.272;2024-01-16T03:22:03;95176.34;;;3.19;70.96
84358;BME280;74548;47.712;9.272;2024-01-16T03:24:29;95168.34;;;3.19;70.99
84358;BME280;74548;47.712;9.272;2024-01-16T03:26:54;95172.88;;;3.18;70.75
84358;BME280;74548;47.712;9.272;2024-01-16T03:29:19;95170.44;;;3.17;70.78
84358;BME280;74548;47.712;9.272;2024-01-16T03:31:45;95167.53;;;3.18;70.95
84358;BME280;74548;47.712;9.272;2024-01-16T03:34:11;95158.97;;;3.16;70.71
84358;BME280;74548;47.712;9.272;2024-01-16T03:36:37;95165.94;;;3.17;70.98
84358;BME280;74548;47.712;9.272;2024-01-16T03:39:02;95159.78;;;3.17;71.22
84358;BME280;74548;47.712;9.272;2024-01-16T03:41:28;95171.28;;;3.17;71.04
84358;BME280;74548;47.712;9.272;2024-01-16T03:43:53;95166.97;;;3.16;71.03
84358;BME280;74548;47.712;9.272;2024-01-16T03:46:22;95166.16;;;3.16;70.92
84358;BME280;74548;47.712;9.272;2024-01-16T03:48:47;95167.22;;;3.15;70.84
84358;BME280;74548;47.712;9.272;2024-01-16T03:51:13;95165.38;;;3.15;70.99
84358;BME280;74548;47.712;9.272;2024-01-16T03:53:41;95160.03;;;3.15;70.90
84358;BME280;74548;47.712;9.272;2024-01-16T03:56:06;95164.56;;;3.15;71.21
84358;BME280;74548;47.712;9.272;2024-01-16T03:58:33;95155.78;;;3.14;71.31
84358;BME280;74548;47.712;9.272;2024-01-16T04:00:58;95151.47;;;3.13;71.20
84358;BME280;74548;47.712;9.272;2024-01-16T04:03:24;95150.69;;;3.13;70.93
84358;BME280;74548;47.712;9.272;2024-01-16T04:05:49;95151.47;;;3.13;71.19
84358;BME280;74548;47.712;9.272;2024-01-16T04:08:15;95156.81;;;3.13;71.07
84358;BME280;74548;47.712;9.272;2024-01-16T04:10:40;95149.06;;;3.12;71.22
84358;BME280;74548;47.712;9.272;2024-01-16T04:13:07;95156.00;;;3.13;71.08
84358;BME280;74548;47.712;9.272;2024-01-16T04:15:32;95147.22;;;3.12;71.10
84358;BME280;74548;47.712;9.272;2024-01-16T04:17:58;95152.53;;;3.12;70.68
84358;BME280;74548;47.712;9.272;2024-01-16T04:20:23;95148.28;;;3.11;70.73
84358;BME280;74548;47.712;9.272;2024-01-16T04:22:49;95142.38;;;3.09;70.78
84358;BME280;74548;47.712;9.272;2024-01-16T04:25:15;95154.66;;;3.10;71.16
84358;BME280;74548;47.712;9.272;2024-01-16T04:27:40;95151.97;;;3.10;70.83
84358;BME280;74548;47.712;9.272;2024-01-16T04:30:06;95147.72;;;3.09;71.23
84358;BME280;74548;47.712;9.272;2024-01-16T04:32:32;95138.13;;;3.08;71.21
84358;BME280;74548;47.712;9.272;2024-01-16T04:34:58;95136.25;;;3.09;70.74
84358;BME280;74548;47.712;9.272;2024-01-16T04:37:23;95137.31;;;3.08;71.12
84358;BME280;74548;47.712;9.272;2024-01-16T04:39:49;95139.16;;;3.07;71.02
84358;BME280;74548;47.712;9.272;2024-01-16T04:42:14;95145.31;;;3.08;71.04
84358;BME280;74548;47.712;9.272;2024-01-16T04:44:40;95151.44;;;3.08;71.00
84358;BME280;74548;47.712;9.272;2024-01-16T04:47:05;95149.59;;;3.09;70.98
84358;BME280;74548;47.712;9.272;2024-01-16T04:49:30;95151.69;;;3.07;70.98
84358;BME280;74548;47.712;9.272;2024-01-16T04:51:56;95157.00;;;3.07;70.93
84358;BME280;74548;47.712;9.272;2024-01-16T04:54:21;95143.69;;;3.07;70.92
84358;BME280;74548;47.712;9.272;2024-01-16T04:56:46;95142.88;;;3.06;71.30
84358;BME280;74548;47.712;9.272;2024-01-16T04:59:12;95142.09;;;3.06;70.78
84358;BME280;74548;47.712;9.272;2024-01-16T05:01:37;95145.56;;;3.06;71.04
84358;BME280;74548;47.712;9.272;2024-01-16T05:04:02;95150.31;;;3.04;70.96
84358;BME280;74548;47.712;9.272;2024-01-16T05:06:29;95147.66;;;3.04;70.82
84358;BME280;74548;47.712;9.272;2024-01-16T05:08:55;95150.09;;;3.06;71.08
84358;BME280;74548;47.712;9.272;2024-01-16T05:11:20;95148.47;;;3.05;70.84
84358;BME280;74548;47.712;9.272;2024-01-16T05:13:46;95150.31;;;3.04;70.74
84358;BME280;74548;47.712;9.272;2024-01-16T05:16:11;95147.66;;;3.04;71.18
84358;BME280;74548;47.712;9.272;2024-01-16T05:18:36;95136.19;;;3.03;71.11
84358;BME280;74548;47.712;9.272;2024-01-16T05:21:01;95132.72;;;3.03;70.95
84358;BME280;74548;47.712;9.272;2024-01-16T05:23:27;95133.53;;;3.03;71.05
84358;BME280;74548;47.712;9.272;2024-01-16T05:25:53;95118.59;;;3.02;70.96
84358;BME280;74548;47.712;9.272;2024-01-16T05:28:18;95113.25;;;3.02;70.89
84358;BME280;74548;47.712;9.272;2024-01-16T05:30:43;95112.47;;;3.02;71.19
84358;BME280;74548;47.712;9.272;2024-01-16T05:33:09;95113.25;;;3.02;70.89
84358;BME280;74548;47.712;9.272;2024-01-16T05:35:34;95106.34;;;3.01;71.11
84358;BME280;74548;47.712;9.272;2024-01-16T05:37:59;95108.16;;;3.01;71.06
84358;BME280;74548;47.712;9.272;2024-01-16T05:40:25;95102.84;;;3.01;70.90
84358;BME280;74548;47.712;9.272;2024-01-16T05:42:51;95099.38;;;3.00;71.22
84358;BME280;74548;47.712;9.272;2024-01-16T05:45:17;95098.56;;;3.00;71.07
84358;BME280;74548;47.712;9.272;2024-01-16T05:47:42;95098.56;;;3.00;71.16
84358;BME280;74548;47.712;9.272;2024-01-16T05:50:08;95094.84;;;3.01;71.01
84358;BME280;74548;47.712;9.272;2024-01-16T05:52:34;95087.09;;;2.99;71.16
84358;BME280;74548;47.712;9.272;2024-01-16T05:54:59;95087.91;;;3.00;71.42
84358;BME280;74548;47.712;9.272;2024-01-16T05:57:25;95082.56;;;3.00;71.35
84358;BME280;74548;47.712;9.272;2024-01-16T05:59:51;95084.69;;;2.98;70.87
84358;BME280;74548;47.712;9.272;2024-01-16T06:02:16;95079.34;;;2.98;71.21
84358;BME280;74548;47.712;9.272;2024-01-16T06:04:42;95079.34;;;2.98;70.99
84358;BME280;74548;47.712;9.272;2024-01-16T06:07:07;95078.56;;;2.97;71.16
84358;BME280;74548;47.712;9.272;2024-01-16T06:09:33;95078.56;;;2.97;70.79
84358;BME280;74548;47.712;9.272;2024-01-16T06:11:59;95081.22;;;2.97;70.99
84358;BME280;74548;47.712;9.272;2024-01-16T06:14:24;95080.41;;;2.97;70.96
84358;BME280;74548;47.712;9.272;2024-01-16T06:16:50;95096.41;;;2.97;71.36
84358;BME280;74548;47.712;9.272;2024-01-16T06:19:16;95096.41;;;2.97;71.06
84358;BME280;74548;47.712;9.272;2024-01-16T06:21:41;95087.63;;;2.96;71.20
84358;BME280;74548;47.712;9.272;2024-01-16T06:24:07;95098.28;;;2.96;71.12
84358;BME280;74548;47.712;9.272;2024-01-16T06:26:32;95096.69;;;2.95;71.26
84358;BME280;74548;47.712;9.272;2024-01-16T06:28:58;95089.47;;;2.96;71.04
84358;BME280;74548;47.712;9.272;2024-01-16T06:31:23;95086.00;;;2.95;71.04
84358;BME280;74548;47.712;9.272;2024-01-16T06:33:51;95077.19;;;2.95;71.33
84358;BME280;74548;47.712;9.272;2024-01-16T06:36:16;95075.34;;;2.95;71.21
84358;BME280;74548;47.712;9.272;2024-01-16T06:38:41;95081.47;;;2.96;70.97
84358;BME280;74548;47.712;9.272;2024-01-16T06:41:07;95084.16;;;2.96;71.22
84358;BME280;74548;47.712;9.272;2024-01-16T06:43:32;95079.84;;;2.95;71.10
84358;BME280;74548;47.712;9.272;2024-01-16T06:45:58;95079.84;;;2.95;71.04
84358;BME280;74548;47.712;9.272;2024-01-16T06:48:24;95083.59;;;2.94;71.01
84358;BME280;74548;47.712;9.272;2024-01-16T06:50:49;95080.91;;;2.94;70.85
84358;BME280;74548;47.712;9.272;2024-01-16T06:53:14;95083.59;;;2.94;70.97
84358;BME280;74548;47.712;9.272;2024-01-16T06:55:40;95080.13;;;2.93;71.03
84358;BME280;74548;47.712;9.272;2024-01-16T06:58:05;95082.78;;;2.93;71.22
84358;BME280;74548;47.712;9.272;2024-01-16T07:00:31;95081.19;;;2.92;71.26
84358;BME280;74548;47.712;9.272;2024-01-16T07:02:56;95078.53;;;2.92;71.04
84358;BME280;74548;47.712;9.272;2024-01-16T07:05:23;95079.31;;;2.93;71.13
84358;BME280;74548;47.712;9.272;2024-01-16T07:07:48;95077.72;;;2.92;71.11
84358;BME280;74548;47.712;9.272;2024-01-16T07:10:14;95082.00;;;2.93;70.74
84358;BME280;74548;47.712;9.272;2024-01-16T07:12:46;95079.56;;;2.91;71.11
84358;BME280;74548;47.712;9.272;2024-01-16T07:15:12;95073.44;;;2.91;71.06
84358;BME280;74548;47.712;9.272;2024-01-16T07:17:39;95073.44;;;2.91;70.89
84358;BME280;74548;47.712;9.272;2024-01-16T07:20:04;95074.50;;;2.90;71.08
84358;BME280;74548;47.712;9.272;2024-01-16T07:22:30;95071.03;;;2.89;70.88
84358;BME280;74548;47.712;9.272;2024-01-16T07:24:55;95069.16;;;2.90;71.08
84358;BME280;74548;47.712;9.272;2024-01-16T07:27:20;95068.38;;;2.89;70.95
84358;BME280;74548;47.712;9.272;2024-01-16T07:29:46;95064.06;;;2.88;71.01
84358;BME280;74548;47.712;9.272;2024-01-16T07:32:11;95064.91;;;2.89;70.87
84358;BME280;74548;47.712;9.272;2024-01-16T07:34:36;95070.22;;;2.89;70.88
84358;BME280;74548;47.712;9.272;2024-01-16T07:37:02;95072.91;;;2.89;70.86
84358;BME280;74548;47.712;9.272;2024-01-16T07:39:28;95071.28;;;2.88;70.85
84358;BME280;74548;47.712;9.272;2024-01-16T07:41:53;95065.94;;;2.88;70.98
84358;BME280;74548;47.712;9.272;2024-01-16T07:44:18;95056.34;;;2.87;71.10
84358;BME280;74548;47.712;9.272;2024-01-16T07:46:44;95057.16;;;2.87;71.00
84358;BME280;74548;47.712;9.272;2024-01-16T07:49:09;95060.59;;;2.88;70.86
84358;BME280;74548;47.712;9.272;2024-01-16T07:51:34;95058.22;;;2.86;70.82
84358;BME280;74548;47.712;9.272;2024-01-16T07:54:05;95057.16;;;2.87;70.91
84358;BME280;74548;47.712;9.272;2024-01-16T07:56:35;95054.75;;;2.86;70.93
84358;BME280;74548;47.712;9.272;2024-01-16T07:59:01;95056.34;;;2.87;70.94
84358;BME280;74548;47.712;9.272;2024-01-16T08:01:27;95057.41;;;2.86;70.76
84358;BME280;74548;47.712;9.272;2024-01-16T08:03:54;95067.00;;;2.87;70.67
84358;BME280;74548;47.712;9.272;2024-01-16T08:06:19;95067.81;;;2.87;70.80
84358;BME280;74548;47.712;9.272;2024-01-16T08:08:45;95071.28;;;2.88;70.74
84358;BME280;74548;47.712;9.272;2024-01-16T08:11:11;95070.47;;;2.87;70.94
84358;BME280;74548;47.712;9.272;2024-01-16T08:13:36;95073.94;;;2.88;70.72
84358;BME280;74548;47.712;9.272;2024-01-16T08:16:02;95069.66;;;2.87;70.75
84358;BME280;74548;47.712;9.272;2024-01-16T08:18:27;95063.53;;;2.86;70.82
84358;BME280;74548;47.712;9.272;2024-01-16T08:20:52;95059.00;;;2.87;70.88
84358;BME280;74548;47.712;9.272;2024-01-16T08:23:18;95061.66;;;2.87;70.79
84358;BME280;74548;47.712;9.272;2024-01-16T08:25:43;95053.69;;;2.87;70.98
84358;BME280;74548;47.712;9.272;2024-01-16T08:28:09;95048.34;;;2.87;70.97
84358;BME280;74548;47.712;9.272;2024-01-16T08:30:35;95048.34;;;2.87;70.76
84358;BME280;74548;47.712;9.272;2024-01-16T08:33:00;95043.03;;;2.87;70.76
84358;BME280;74548;47.712;9.272;2024-01-16T08:35:25;95051.00;;;2.87;70.75
84358;BME280;74548;47.712;9.272;2024-01-16T08:37:51;95045.69;;;2.87;70.88
84358;BME280;74548;47.712;9.272;2024-01-16T08:40:16;95044.88;;;2.86;70.99
84358;BME280;74548;47.712;9.272;2024-01-16T08:42:42;95050.22;;;2.86;70.77
84358;BME280;74548;47.712;9.272;2024-01-16T08:45:08;95045.69;;;2.87;70.62
84358;BME280;74548;47.712;9.272;2024-01-16T08:47:33;95044.88;;;2.86;71.08
84358;BME280;74548;47.712;9.272;2024-01-16T08:49:58;95052.63;;;2.88;70.92
84358;BME280;74548;47.712;9.272;2024-01-16T08:52:24;95045.69;;;2.87;70.68
84358;BME280;74548;47.712;9.272;2024-01-16T08:54:49;95048.09;;;2.88;70.55
84358;BME280;74548;47.712;9.272;2024-01-16T08:57:14;95055.28;;;2.88;70.55
84358;BME280;74548;47.712;9.272;2024-01-16T08:59:40;95044.63;;;2.88;70.70
84358;BME280;74548;47.712;9.272;2024-01-16T09:02:06;95042.22;;;2.86;70.47
84358;BME280;74548;47.712;9.272;2024-01-16T09:04:31;95048.34;;;2.87;70.73
84358;BME280;74548;47.712;9.272;2024-01-16T09:06:56;95037.69;;;2.87;70.65
84358;BME280;74548;47.712;9.272;2024-01-16T09:09:22;95040.09;;;2.88;70.65
84358;BME280;74548;47.712;9.272;2024-01-16T09:11:47;95033.97;;;2.88;70.48
84358;BME280;74548;47.712;9.272;2024-01-16T09:14:12;95032.91;;;2.89;70.59
84358;BME280;74548;47.712;9.272;2024-01-16T09:16:38;95031.84;;;2.90;70.67
84358;BME280;74548;47.712;9.272;2024-01-16T09:19:04;95036.38;;;2.89;70.60
84358;BME280;74548;47.712;9.272;2024-01-16T09:21:29;95037.19;;;2.90;70.50
84358;BME280;74548;47.712;9.272;2024-01-16T09:23:55;95048.41;;;2.92;70.61
84358;BME280;74548;47.712;9.272;2024-01-16T09:26:20;95048.41;;;2.92;70.48
84358;BME280;74548;47.712;9.272;2024-01-16T09:28:46;95041.44;;;2.91;70.52
84358;BME280;74548;47.712;9.272;2024-01-16T09:31:11;95042.00;;;2.93;70.79
84358;BME280;74548;47.712;9.272;2024-01-16T09:33:36;95043.88;;;2.92;70.73
84358;BME280;74548;47.712;9.272;2024-01-16T09:36:02;95037.75;;;2.92;70.29
84358;BME280;74548;47.712;9.272;2024-01-16T09:38:28;95040.41;;;2.92;70.38
84358;BME280;74548;47.712;9.272;2024-01-16T09:40:53;95043.06;;;2.92;70.60
84358;BME280;74548;47.712;9.272;2024-01-16T09:43:23;95043.88;;;2.92;70.23
84358;BME280;74548;47.712;9.272;2024-01-16T09:45:51;95046.53;;;2.92;70.40
84358;BME280;74548;47.712;9.272;2024-01-16T09:48:17;95046.53;;;2.92;70.45
84358;BME280;74548;47.712;9.272;2024-01-16T09:50:42;95044.66;;;2.93;70.75
84358;BME280;74548;47.712;9.272;2024-01-16T09:53:07;95036.91;;;2.91;70.45
84358;BME280;74548;47.712;9.272;2024-01-16T09:55:33;95039.34;;;2.93;70.53
84358;BME280;74548;47.712;9.272;2024-01-16T09:57:59;95041.22;;;2.92;70.68
84358;BME280;74548;47.712;9.272;2024-01-16T10:00:26;95036.91;;;2.91;70.24
84358;BME280;74548;47.712;9.272;2024-01-16T10:02:52;95040.41;;;2.92;70.50
84358;BME280;74548;47.712;9.272;2024-01-16T10:05:18;95028.69;;;2.93;70.32
84358;BME280;74548;47.712;9.272;2024-01-16T10:07:44;95030.53;;;2.92;70.46
84358;BME280;74548;47.712;9.272;2024-01-16T10:10:09;95029.47;;;2.93;70.47
84358;BME280;74548;47.712;9.272;2024-01-16T10:12:39;95022.56;;;2.92;70.44
84358;BME280;74548;47.712;9.272;2024-01-16T10:15:08;95019.88;;;2.92;70.35
84358;BME280;74548;47.712;9.272;2024-01-16T10:17:38;95011.88;;;2.92;70.28
84358;BME280;74548;47.712;9.272;2024-01-16T10:20:05;95007.34;;;2.93;69.94
84358;BME280;74548;47.712;9.272;2024-01-16T10:22:31;95007.34;;;2.93;70.37
84358;BME280;74548;47.712;9.272;2024-01-16T10:25:10;95002.03;;;2.93;70.58
84358;BME280;74548;47.712;9.272;2024-01-16T10:27:39;95002.81;;;2.93;70.13
84358;BME280;74548;47.712;9.272;2024-01-16T10:30:05;95008.16;;;2.93;70.44
84358;BME280;74548;47.712;9.272;2024-01-16T10:32:41;94997.50;;;2.93;70.35
84358;BME280;74548;47.712;9.272;2024-01-16T10:35:09;94991.38;;;2.93;70.29
84358;BME280;74548;47.712;9.272;2024-01-16T10:37:55;94987.91;;;2.92;70.45
84358;BME280;74548;47.712;9.272;2024-01-16T10:40:24;94994.03;;;2.93;70.54
84358;BME280;74548;47.712;9.272;2024-01-16T10:43:00;94999.34;;;2.93;70.22
84358;BME280;74548;47.712;9.272;2024-01-16T10:45:26;94995.91;;;2.92;70.33
84358;BME280;74548;47.712;9.272;2024-01-16T10:48:07;94988.13;;;2.91;70.25
84358;BME280;74548;47.712;9.272;2024-01-16T10:50:34;94988.13;;;2.86;69.68
84358;BME280;74548;47.712;9.272;2024-01-16T10:53:05;94987.00;;;2.82;68.56
84358;BME280;74548;47.712;9.272;2024-01-16T10:55:31;94979.50;;;2.78;65.84
84358;BME280;74548;47.712;9.272;2024-01-16T10:57:58;94982.19;;;2.78;65.38
84358;BME280;74548;47.712;9.272;2024-01-16T11:00:28;94981.13;;;2.79;65.85
84358;BME280;74548;47.712;9.272;2024-01-16T11:03:07;94978.47;;;2.79;66.14
84358;BME280;74548;47.712;9.272;2024-01-16T11:05:35;94982.19;;;2.78;67.02
84358;BME280;74548;47.712;9.272;2024-01-16T11:08:03;94984.84;;;2.78;64.79
84358;BME280;74548;47.712;9.272;2024-01-16T11:10:32;94977.13;;;2.82;62.82
84358;BME280;74548;47.712;9.272;2024-01-16T11:13:03;94978.53;;;2.90;63.42
84358;BME280;74548;47.712;9.272;2024-01-16T11:15:31;94987.13;;;2.97;63.99
84358;BME280;74548;47.712;9.272;2024-01-16T11:17:56;94990.13;;;3.06;64.47
84358;BME280;74548;47.712;9.272;2024-01-16T11:20:23;94981.63;;;3.14;64.43
84358;BME280;74548;47.712;9.272;2024-01-16T11:22:49;94974.75;;;3.23;64.94
84358;BME280;74548;47.712;9.272;2024-01-16T11:25:16;94970.03;;;3.30;64.85
84358;BME280;74548;47.712;9.272;2024-01-16T11:27:45;94967.94;;;3.37;65.13
84358;BME280;74548;47.712;9.272;2024-01-16T11:30:29;94971.44;;;3.43;65.17
84358;BME280;74548;47.712;9.272;2024-01-16T11:32:55;94964.22;;;3.48;65.26
84358;BME280;74548;47.712;9.272;2024-01-16T11:35:35;94958.13;;;3.53;65.47
84358;BME280;74548;47.712;9.272;2024-01-16T11:38:16;94960.00;;;3.58;65.49
84358;BME280;74548;47.712;9.272;2024-01-16T11:40:41;94953.38;;;3.60;65.38
84358;BME280;74548;47.712;9.272;2024-01-16T11:46:04;94959.25;;;3.67;65.88
84358;BME280;74548;47.712;9.272;2024-01-16T11:48:29;94951.81;;;3.69;65.68
84358;BME280;74548;47.712;9.272;2024-01-16T11:50:55;94948.06;;;3.70;65.94
84358;BME280;74548;47.712;9.272;2024-01-16T12:01:38;94932.63;;;3.78;66.26
84358;BME280;74548;47.712;9.272;2024-01-16T12:04:06;94921.94;;;3.78;66.42
84358;BME280;74548;47.712;9.272;2024-01-16T12:06:36;94922.75;;;3.78;65.98
84358;BME280;74548;47.712;9.272;2024-01-16T12:09:12;94910.22;;;3.79;66.09
84358;BME280;74548;47.712;9.272;2024-01-16T12:11:39;94909.13;;;3.80;66.24
84358;BME280;74548;47.712;9.272;2024-01-16T12:14:04;94913.44;;;3.81;66.45
84358;BME280;74548;47.712;9.272;2024-01-16T12:16:30;94907.00;;;3.82;66.58
84358;BME280;74548;47.712;9.272;2024-01-16T12:19:06;94905.94;;;3.83;66.67
84358;BME280;74548;47.712;9.272;2024-01-16T12:21:33;94899.56;;;3.84;66.60
84358;BME280;74548;47.712;9.272;2024-01-16T12:23:59;94898.47;;;3.85;66.18
84358;BME280;74548;47.712;9.272;2024-01-16T12:26:24;94898.47;;;3.85;66.73
84358;BME280;74548;47.712;9.272;2024-01-16T12:28:53;94902.75;;;3.86;66.38
84358;BME280;74548;47.712;9.272;2024-01-16T12:31:18;94901.66;;;3.87;66.55
84358;BME280;74548;47.712;9.272;2024-01-16T12:33:44;94895.53;;;3.86;66.35
84358;BME280;74548;47.712;9.272;2024-01-16T12:36:09;94883.81;;;3.87;66.82
84358;BME280;74548;47.712;9.272;2024-01-16T12:38:36;94879.28;;;3.88;66.75
84358;BME280;74548;47.712;9.272;2024-01-16T12:41:01;94881.16;;;3.87;66.24
84358;BME280;74548;47.712;9.272;2024-01-16T12:43:32;94877.41;;;3.88;66.50
84358;BME280;74548;47.712;9.272;2024-01-16T12:45:58;94875.53;;;3.89;66.93
84358;BME280;74548;47.712;9.272;2024-01-16T12:48:25;94872.84;;;3.89;66.45
84358;BME280;74548;47.712;9.272;2024-01-16T12:50:50;94872.84;;;3.89;66.79
84358;BME280;74548;47.712;9.272;2024-01-16T12:53:16;94872.84;;;3.89;66.80
84358;BME280;74548;47.712;9.272;2024-01-16T12:55:44;94867.53;;;3.89;66.66
84358;BME280;74548;47.712;9.272;2024-01-16T13:00:39;94854.16;;;3.89;66.99
84358;BME280;74548;47.712;9.272;2024-01-16T13:03:07;94857.63;;;3.89;67.02
84358;BME280;74548;47.712;9.272;2024-01-16T13:05:33;94853.09;;;3.90;66.94
84358;BME280;74548;47.712;9.272;2024-01-16T13:08:02;94853.91;;;3.90;67.14
84358;BME280;74548;47.712;9.272;2024-01-16T13:10:31;94839.75;;;3.90;66.78
84358;BME280;74548;47.712;9.272;2024-01-16T13:13:18;94847.75;;;3.90;67.11
84358;BME280;74548;47.712;9.272;2024-01-16T13:15:44;94849.63;;;3.89;67.25
84358;BME280;74548;47.712;9.272;2024-01-16T13:18:23;94851.25;;;3.90;66.86
84358;BME280;74548;47.712;9.272;2024-01-16T13:20:53;94850.44;;;3.90;66.62